sim
Sign-in with your pilot id or email,
or register
Callsign
Passwort

Schedule Details

Flight Number: OEO5966
Departure: Delhi Indira Gandhi International Airport (VIDP) at 19:30
Arrival: Zurich Airport (LSZH) at 04:35

Weather Information
Getting current METAR information for VIDP 312100Z 00000KT 1200 R28/2000 R29/2000 FU NSC 17/11 Q1013 NOSIG
Getting current METAR information for LSZH 312120Z VRB01KT 0200 R14/0450D R16/0450U R28/0375N R34/0400N FG VV001 07/07 Q1022 NOSIG

Schedule Frequency

Route Map